sensor_id;sensor_type;location;lat;lon;timestamp;P1;durP1;ratioP1;P2;durP2;ratioP2
2474;SDS011;1248;48.694;10.160;2023-01-24T00:01:00;25.53;;;16.20;;
2474;SDS011;1248;48.694;10.160;2023-01-24T00:03:27;23.10;;;16.27;;
2474;SDS011;1248;48.694;10.160;2023-01-24T00:05:54;25.80;;;15.73;;
2474;SDS011;1248;48.694;10.160;2023-01-24T00:08:23;26.17;;;16.00;;
2474;SDS011;1248;48.694;10.160;2023-01-24T00:10:57;25.67;;;15.57;;
2474;SDS011;1248;48.694;10.160;2023-01-24T00:13:25;24.93;;;16.40;;
2474;SDS011;1248;48.694;10.160;2023-01-24T00:16:00;20.23;;;14.60;;
2474;SDS011;1248;48.694;10.160;2023-01-24T00:18:28;21.13;;;14.03;;
2474;SDS011;1248;48.694;10.160;2023-01-24T00:20:59;20.40;;;16.07;;
2474;SDS011;1248;48.694;10.160;2023-01-24T00:23:28;25.90;;;15.17;;
2474;SDS011;1248;48.694;10.160;2023-01-24T00:25:55;27.40;;;16.43;;
2474;SDS011;1248;48.694;10.160;2023-01-24T00:28:22;23.97;;;15.40;;
2474;SDS011;1248;48.694;10.160;2023-01-24T00:30:49;32.53;;;17.60;;
2474;SDS011;1248;48.694;10.160;2023-01-24T00:33:16;25.40;;;16.50;;
2474;SDS011;1248;48.694;10.160;2023-01-24T00:35:43;20.83;;;14.63;;
2474;SDS011;1248;48.694;10.160;2023-01-24T00:38:10;23.43;;;15.70;;
2474;SDS011;1248;48.694;10.160;2023-01-24T00:40:39;23.07;;;16.63;;
2474;SDS011;1248;48.694;10.160;2023-01-24T00:43:06;31.00;;;17.57;;
2474;SDS011;1248;48.694;10.160;2023-01-24T00:45:34;24.40;;;16.10;;
2474;SDS011;1248;48.694;10.160;2023-01-24T00:48:02;27.43;;;15.83;;
2474;SDS011;1248;48.694;10.160;2023-01-24T00:50:29;22.00;;;14.30;;
2474;SDS011;1248;48.694;10.160;2023-01-24T00:52:56;24.13;;;16.43;;
2474;SDS011;1248;48.694;10.160;2023-01-24T00:55:23;28.03;;;14.80;;
2474;SDS011;1248;48.694;10.160;2023-01-24T00:57:52;23.03;;;15.70;;
2474;SDS011;1248;48.694;10.160;2023-01-24T01:00:19;22.67;;;14.90;;
2474;SDS011;1248;48.694;10.160;2023-01-24T01:02:47;25.90;;;16.60;;
2474;SDS011;1248;48.694;10.160;2023-01-24T01:05:14;25.73;;;16.10;;
2474;SDS011;1248;48.694;10.160;2023-01-24T01:07:42;24.47;;;16.00;;
2474;SDS011;1248;48.694;10.160;2023-01-24T01:10:09;24.23;;;15.27;;
2474;SDS011;1248;48.694;10.160;2023-01-24T01:12:37;29.67;;;17.00;;
2474;SDS011;1248;48.694;10.160;2023-01-24T01:15:06;24.13;;;16.33;;
2474;SDS011;1248;48.694;10.160;2023-01-24T01:17:33;22.50;;;14.87;;
2474;SDS011;1248;48.694;10.160;2023-01-24T01:20:00;23.33;;;16.17;;
2474;SDS011;1248;48.694;10.160;2023-01-24T01:22:27;21.10;;;14.00;;
2474;SDS011;1248;48.694;10.160;2023-01-24T01:24:54;21.53;;;15.00;;
2474;SDS011;1248;48.694;10.160;2023-01-24T01:27:22;23.33;;;14.70;;
2474;SDS011;1248;48.694;10.160;2023-01-24T01:29:49;25.83;;;16.50;;
2474;SDS011;1248;48.694;10.160;2023-01-24T01:32:17;24.03;;;15.93;;
2474;SDS011;1248;48.694;10.160;2023-01-24T01:34:44;24.50;;;14.83;;
2474;SDS011;1248;48.694;10.160;2023-01-24T01:37:11;24.43;;;15.97;;
2474;SDS011;1248;48.694;10.160;2023-01-24T01:39:38;26.80;;;17.57;;
2474;SDS011;1248;48.694;10.160;2023-01-24T01:42:05;27.90;;;16.20;;
2474;SDS011;1248;48.694;10.160;2023-01-24T01:44:32;25.83;;;16.17;;
2474;SDS011;1248;48.694;10.160;2023-01-24T01:47:10;26.67;;;17.20;;
2474;SDS011;1248;48.694;10.160;2023-01-24T01:49:53;25.10;;;16.30;;
2474;SDS011;1248;48.694;10.160;2023-01-24T01:52:23;32.90;;;18.70;;
2474;SDS011;1248;48.694;10.160;2023-01-24T01:54:51;35.07;;;21.20;;
2474;SDS011;1248;48.694;10.160;2023-01-24T01:57:21;31.47;;;19.90;;
2474;SDS011;1248;48.694;10.160;2023-01-24T01:59:50;25.20;;;17.53;;
2474;SDS011;1248;48.694;10.160;2023-01-24T02:02:18;30.73;;;18.23;;
2474;SDS011;1248;48.694;10.160;2023-01-24T02:04:47;30.00;;;18.50;;
2474;SDS011;1248;48.694;10.160;2023-01-24T02:07:19;31.60;;;19.23;;
2474;SDS011;1248;48.694;10.160;2023-01-24T02:09:49;28.23;;;18.37;;
2474;SDS011;1248;48.694;10.160;2023-01-24T02:12:18;28.87;;;18.07;;
2474;SDS011;1248;48.694;10.160;2023-01-24T02:14:46;32.30;;;19.40;;
2474;SDS011;1248;48.694;10.160;2023-01-24T02:17:32;28.93;;;19.30;;
2474;SDS011;1248;48.694;10.160;2023-01-24T02:20:14;30.83;;;18.67;;
2474;SDS011;1248;48.694;10.160;2023-01-24T02:22:48;30.27;;;19.23;;
2474;SDS011;1248;48.694;10.160;2023-01-24T02:25:22;32.13;;;18.63;;
2474;SDS011;1248;48.694;10.160;2023-01-24T02:27:54;29.50;;;18.37;;
2474;SDS011;1248;48.694;10.160;2023-01-24T02:30:23;28.10;;;18.60;;
2474;SDS011;1248;48.694;10.160;2023-01-24T02:32:50;31.83;;;17.80;;
2474;SDS011;1248;48.694;10.160;2023-01-24T02:35:24;28.23;;;17.93;;
2474;SDS011;1248;48.694;10.160;2023-01-24T02:37:53;33.47;;;19.70;;
2474;SDS011;1248;48.694;10.160;2023-01-24T02:40:20;32.30;;;18.80;;
2474;SDS011;1248;48.694;10.160;2023-01-24T02:42:47;30.00;;;18.60;;
2474;SDS011;1248;48.694;10.160;2023-01-24T02:45:17;34.00;;;19.83;;
2474;SDS011;1248;48.694;10.160;2023-01-24T02:47:47;30.57;;;18.83;;
2474;SDS011;1248;48.694;10.160;2023-01-24T02:50:16;31.30;;;18.90;;
2474;SDS011;1248;48.694;10.160;2023-01-24T02:52:44;29.50;;;18.67;;
2474;SDS011;1248;48.694;10.160;2023-01-24T02:55:28;29.20;;;18.97;;
2474;SDS011;1248;48.694;10.160;2023-01-24T02:57:56;31.97;;;20.47;;
2474;SDS011;1248;48.694;10.160;2023-01-24T03:00:32;30.63;;;19.47;;
2474;SDS011;1248;48.694;10.160;2023-01-24T03:03:00;32.83;;;19.23;;
2474;SDS011;1248;48.694;10.160;2023-01-24T03:05:28;29.57;;;18.03;;
2474;SDS011;1248;48.694;10.160;2023-01-24T03:08:05;29.63;;;18.10;;
2474;SDS011;1248;48.694;10.160;2023-01-24T03:10:33;30.20;;;18.80;;
2474;SDS011;1248;48.694;10.160;2023-01-24T03:13:01;32.43;;;18.33;;
2474;SDS011;1248;48.694;10.160;2023-01-24T03:15:47;31.27;;;19.10;;
2474;SDS011;1248;48.694;10.160;2023-01-24T03:18:31;32.07;;;18.80;;
2474;SDS011;1248;48.694;10.160;2023-01-24T03:21:16;28.70;;;19.07;;
2474;SDS011;1248;48.694;10.160;2023-01-24T03:24:00;28.87;;;17.37;;
2474;SDS011;1248;48.694;10.160;2023-01-24T03:26:45;27.00;;;17.10;;
2474;SDS011;1248;48.694;10.160;2023-01-24T03:29:29;29.90;;;18.07;;
2474;SDS011;1248;48.694;10.160;2023-01-24T03:32:15;31.00;;;17.70;;
2474;SDS011;1248;48.694;10.160;2023-01-24T03:34:59;26.80;;;17.87;;
2474;SDS011;1248;48.694;10.160;2023-01-24T03:37:26;26.70;;;18.33;;
2474;SDS011;1248;48.694;10.160;2023-01-24T03:40:12;26.00;;;17.50;;
2474;SDS011;1248;48.694;10.160;2023-01-24T03:42:40;34.13;;;17.90;;
2474;SDS011;1248;48.694;10.160;2023-01-24T03:45:14;27.60;;;17.47;;
2474;SDS011;1248;48.694;10.160;2023-01-24T03:47:47;26.43;;;17.80;;
2474;SDS011;1248;48.694;10.160;2023-01-24T03:50:31;25.70;;;16.17;;
2474;SDS011;1248;48.694;10.160;2023-01-24T03:53:17;25.63;;;17.40;;
2474;SDS011;1248;48.694;10.160;2023-01-24T03:55:45;31.80;;;20.87;;
2474;SDS011;1248;48.694;10.160;2023-01-24T03:58:12;36.20;;;20.40;;
2474;SDS011;1248;48.694;10.160;2023-01-24T04:00:39;28.83;;;18.53;;
2474;SDS011;1248;48.694;10.160;2023-01-24T04:03:08;34.83;;;19.97;;
2474;SDS011;1248;48.694;10.160;2023-01-24T04:05:35;35.60;;;22.20;;
2474;SDS011;1248;48.694;10.160;2023-01-24T04:08:02;31.10;;;20.03;;
2474;SDS011;1248;48.694;10.160;2023-01-24T04:10:30;27.40;;;18.80;;
2474;SDS011;1248;48.694;10.160;2023-01-24T04:12:58;34.20;;;20.63;;
2474;SDS011;1248;48.694;10.160;2023-01-24T04:15:25;29.40;;;19.93;;
2474;SDS011;1248;48.694;10.160;2023-01-24T04:17:54;34.67;;;22.40;;
2474;SDS011;1248;48.694;10.160;2023-01-24T04:20:23;30.73;;;20.80;;
2474;SDS011;1248;48.694;10.160;2023-01-24T04:22:51;35.70;;;21.63;;
2474;SDS011;1248;48.694;10.160;2023-01-24T04:25:18;31.03;;;19.50;;
2474;SDS011;1248;48.694;10.160;2023-01-24T04:27:45;37.17;;;22.17;;
2474;SDS011;1248;48.694;10.160;2023-01-24T04:30:13;38.13;;;20.77;;
2474;SDS011;1248;48.694;10.160;2023-01-24T04:32:41;31.70;;;19.53;;
2474;SDS011;1248;48.694;10.160;2023-01-24T04:35:09;30.10;;;20.87;;
2474;SDS011;1248;48.694;10.160;2023-01-24T04:37:38;35.63;;;20.97;;
2474;SDS011;1248;48.694;10.160;2023-01-24T04:40:05;31.37;;;19.87;;
2474;SDS011;1248;48.694;10.160;2023-01-24T04:42:33;35.73;;;21.80;;
2474;SDS011;1248;48.694;10.160;2023-01-24T04:45:00;38.90;;;20.83;;
2474;SDS011;1248;48.694;10.160;2023-01-24T04:47:28;30.90;;;19.53;;
2474;SDS011;1248;48.694;10.160;2023-01-24T04:49:55;29.53;;;19.07;;
2474;SDS011;1248;48.694;10.160;2023-01-24T04:52:22;31.57;;;19.20;;
2474;SDS011;1248;48.694;10.160;2023-01-24T04:54:50;32.97;;;21.17;;
2474;SDS011;1248;48.694;10.160;2023-01-24T04:57:17;36.80;;;21.70;;
2474;SDS011;1248;48.694;10.160;2023-01-24T04:59:45;34.80;;;19.97;;
2474;SDS011;1248;48.694;10.160;2023-01-24T05:02:12;30.40;;;19.93;;
2474;SDS011;1248;48.694;10.160;2023-01-24T05:04:39;31.30;;;18.97;;
2474;SDS011;1248;48.694;10.160;2023-01-24T05:07:06;34.03;;;20.70;;
2474;SDS011;1248;48.694;10.160;2023-01-24T05:09:33;35.80;;;20.93;;
2474;SDS011;1248;48.694;10.160;2023-01-24T05:12:01;30.90;;;19.77;;
2474;SDS011;1248;48.694;10.160;2023-01-24T05:14:28;28.57;;;19.03;;
2474;SDS011;1248;48.694;10.160;2023-01-24T05:16:55;31.73;;;19.60;;
2474;SDS011;1248;48.694;10.160;2023-01-24T05:19:22;36.03;;;18.33;;
2474;SDS011;1248;48.694;10.160;2023-01-24T05:21:49;34.60;;;20.80;;
2474;SDS011;1248;48.694;10.160;2023-01-24T05:24:16;32.50;;;21.60;;
2474;SDS011;1248;48.694;10.160;2023-01-24T05:26:43;30.70;;;20.10;;
2474;SDS011;1248;48.694;10.160;2023-01-24T05:29:12;28.80;;;19.80;;
2474;SDS011;1248;48.694;10.160;2023-01-24T05:31:39;28.67;;;17.80;;
2474;SDS011;1248;48.694;10.160;2023-01-24T05:34:06;29.60;;;18.00;;
2474;SDS011;1248;48.694;10.160;2023-01-24T05:36:33;31.40;;;20.00;;
2474;SDS011;1248;48.694;10.160;2023-01-24T05:39:00;33.27;;;19.90;;
2474;SDS011;1248;48.694;10.160;2023-01-24T05:41:27;31.00;;;20.33;;
2474;SDS011;1248;48.694;10.160;2023-01-24T05:43:54;32.33;;;20.07;;
2474;SDS011;1248;48.694;10.160;2023-01-24T05:46:23;30.83;;;19.27;;
2474;SDS011;1248;48.694;10.160;2023-01-24T05:48:50;33.07;;;19.97;;
2474;SDS011;1248;48.694;10.160;2023-01-24T05:51:18;31.47;;;18.60;;
2474;SDS011;1248;48.694;10.160;2023-01-24T05:53:46;32.57;;;19.90;;
2474;SDS011;1248;48.694;10.160;2023-01-24T05:56:14;28.07;;;18.57;;
2474;SDS011;1248;48.694;10.160;2023-01-24T05:58:42;29.37;;;18.63;;
2474;SDS011;1248;48.694;10.160;2023-01-24T06:01:11;28.43;;;17.53;;
2474;SDS011;1248;48.694;10.160;2023-01-24T06:03:43;30.93;;;20.10;;
2474;SDS011;1248;48.694;10.160;2023-01-24T06:06:11;29.23;;;20.73;;
2474;SDS011;1248;48.694;10.160;2023-01-24T06:08:39;28.60;;;19.73;;
2474;SDS011;1248;48.694;10.160;2023-01-24T06:11:07;29.00;;;20.47;;
2474;SDS011;1248;48.694;10.160;2023-01-24T06:13:37;33.00;;;20.50;;
2474;SDS011;1248;48.694;10.160;2023-01-24T06:16:06;31.20;;;18.97;;
2474;SDS011;1248;48.694;10.160;2023-01-24T06:18:34;29.10;;;19.00;;
2474;SDS011;1248;48.694;10.160;2023-01-24T06:21:06;33.23;;;20.73;;
2474;SDS011;1248;48.694;10.160;2023-01-24T06:23:34;31.80;;;20.17;;
2474;SDS011;1248;48.694;10.160;2023-01-24T06:26:01;34.13;;;18.87;;
2474;SDS011;1248;48.694;10.160;2023-01-24T06:28:29;30.90;;;20.10;;
2474;SDS011;1248;48.694;10.160;2023-01-24T06:30:59;31.30;;;19.37;;
2474;SDS011;1248;48.694;10.160;2023-01-24T06:33:33;33.67;;;19.77;;
2474;SDS011;1248;48.694;10.160;2023-01-24T06:36:10;32.63;;;18.40;;
2474;SDS011;1248;48.694;10.160;2023-01-24T06:38:45;34.03;;;19.10;;
2474;SDS011;1248;48.694;10.160;2023-01-24T06:41:13;33.67;;;20.70;;
2474;SDS011;1248;48.694;10.160;2023-01-24T06:43:42;29.53;;;19.00;;
2474;SDS011;1248;48.694;10.160;2023-01-24T06:46:09;31.50;;;17.60;;
2474;SDS011;1248;48.694;10.160;2023-01-24T06:48:37;31.53;;;19.53;;
2474;SDS011;1248;48.694;10.160;2023-01-24T06:51:04;27.00;;;17.53;;
2474;SDS011;1248;48.694;10.160;2023-01-24T06:53:33;27.93;;;18.50;;
2474;SDS011;1248;48.694;10.160;2023-01-24T06:56:00;31.13;;;18.60;;
2474;SDS011;1248;48.694;10.160;2023-01-24T06:58:27;26.17;;;18.40;;
2474;SDS011;1248;48.694;10.160;2023-01-24T07:00:54;27.97;;;17.37;;
2474;SDS011;1248;48.694;10.160;2023-01-24T07:03:21;33.30;;;18.00;;
2474;SDS011;1248;48.694;10.160;2023-01-24T07:05:48;28.60;;;16.60;;
2474;SDS011;1248;48.694;10.160;2023-01-24T07:08:15;29.27;;;19.50;;
2474;SDS011;1248;48.694;10.160;2023-01-24T07:10:44;31.73;;;19.90;;
2474;SDS011;1248;48.694;10.160;2023-01-24T07:13:11;29.67;;;18.80;;
2474;SDS011;1248;48.694;10.160;2023-01-24T07:15:38;30.10;;;16.67;;
2474;SDS011;1248;48.694;10.160;2023-01-24T07:18:06;26.33;;;16.20;;
2474;SDS011;1248;48.694;10.160;2023-01-24T07:20:34;29.30;;;17.53;;
2474;SDS011;1248;48.694;10.160;2023-01-24T07:23:01;27.13;;;18.07;;
2474;SDS011;1248;48.694;10.160;2023-01-24T07:25:29;25.00;;;17.10;;
2474;SDS011;1248;48.694;10.160;2023-01-24T07:27:58;28.47;;;17.90;;
2474;SDS011;1248;48.694;10.160;2023-01-24T07:30:25;25.83;;;17.00;;
2474;SDS011;1248;48.694;10.160;2023-01-24T07:32:53;22.93;;;17.33;;
2474;SDS011;1248;48.694;10.160;2023-01-24T07:35:20;29.77;;;17.10;;
2474;SDS011;1248;48.694;10.160;2023-01-24T07:37:47;30.83;;;18.67;;
2474;SDS011;1248;48.694;10.160;2023-01-24T07:40:15;30.17;;;17.97;;
2474;SDS011;1248;48.694;10.160;2023-01-24T07:42:42;28.77;;;18.30;;
2474;SDS011;1248;48.694;10.160;2023-01-24T07:45:10;26.10;;;15.50;;
2474;SDS011;1248;48.694;10.160;2023-01-24T07:47:37;27.30;;;18.60;;
2474;SDS011;1248;48.694;10.160;2023-01-24T07:50:05;24.60;;;17.90;;
2474;SDS011;1248;48.694;10.160;2023-01-24T07:52:32;24.07;;;16.47;;
2474;SDS011;1248;48.694;10.160;2023-01-24T07:54:59;28.50;;;16.57;;
2474;SDS011;1248;48.694;10.160;2023-01-24T07:57:26;32.53;;;20.43;;
2474;SDS011;1248;48.694;10.160;2023-01-24T07:59:53;31.67;;;18.40;;
2474;SDS011;1248;48.694;10.160;2023-01-24T08:02:22;28.13;;;17.33;;
2474;SDS011;1248;48.694;10.160;2023-01-24T08:04:49;29.30;;;17.60;;
2474;SDS011;1248;48.694;10.160;2023-01-24T08:07:16;23.47;;;16.83;;
2474;SDS011;1248;48.694;10.160;2023-01-24T08:09:43;29.20;;;17.70;;
2474;SDS011;1248;48.694;10.160;2023-01-24T08:12:10;24.00;;;15.90;;
2474;SDS011;1248;48.694;10.160;2023-01-24T08:14:37;28.37;;;17.17;;
2474;SDS011;1248;48.694;10.160;2023-01-24T08:17:05;22.70;;;16.53;;
2474;SDS011;1248;48.694;10.160;2023-01-24T08:19:33;26.90;;;17.93;;
2474;SDS011;1248;48.694;10.160;2023-01-24T08:22:01;27.03;;;16.93;;
2474;SDS011;1248;48.694;10.160;2023-01-24T08:24:28;22.63;;;17.70;;
2474;SDS011;1248;48.694;10.160;2023-01-24T08:26:55;30.03;;;19.47;;
2474;SDS011;1248;48.694;10.160;2023-01-24T08:29:22;23.87;;;17.60;;
2474;SDS011;1248;48.694;10.160;2023-01-24T08:31:49;28.33;;;18.13;;
2474;SDS011;1248;48.694;10.160;2023-01-24T08:34:16;23.40;;;15.50;;
2474;SDS011;1248;48.694;10.160;2023-01-24T08:36:44;23.57;;;17.10;;
2474;SDS011;1248;48.694;10.160;2023-01-24T08:39:11;25.70;;;18.77;;
2474;SDS011;1248;48.694;10.160;2023-01-24T08:41:38;26.27;;;14.90;;
2474;SDS011;1248;48.694;10.160;2023-01-24T08:44:05;23.10;;;15.90;;
2474;SDS011;1248;48.694;10.160;2023-01-24T08:46:32;20.73;;;14.00;;
2474;SDS011;1248;48.694;10.160;2023-01-24T08:49:01;23.07;;;16.83;;
2474;SDS011;1248;48.694;10.160;2023-01-24T08:51:28;21.07;;;15.40;;
2474;SDS011;1248;48.694;10.160;2023-01-24T08:53:57;27.07;;;17.67;;
2474;SDS011;1248;48.694;10.160;2023-01-24T08:56:24;24.77;;;16.33;;
2474;SDS011;1248;48.694;10.160;2023-01-24T08:58:51;23.80;;;15.30;;
2474;SDS011;1248;48.694;10.160;2023-01-24T09:01:18;22.87;;;15.90;;
2474;SDS011;1248;48.694;10.160;2023-01-24T09:03:45;26.43;;;15.40;;
2474;SDS011;1248;48.694;10.160;2023-01-24T09:06:14;20.40;;;13.70;;
2474;SDS011;1248;48.694;10.160;2023-01-24T09:08:41;21.83;;;14.03;;
2474;SDS011;1248;48.694;10.160;2023-01-24T09:11:10;20.67;;;14.77;;
2474;SDS011;1248;48.694;10.160;2023-01-24T09:13:37;23.08;;;15.30;;
2474;SDS011;1248;48.694;10.160;2023-01-24T09:16:04;23.60;;;15.07;;
2474;SDS011;1248;48.694;10.160;2023-01-24T09:18:31;20.97;;;15.57;;
2474;SDS011;1248;48.694;10.160;2023-01-24T09:21:01;24.47;;;14.23;;
2474;SDS011;1248;48.694;10.160;2023-01-24T09:23:28;19.87;;;14.03;;
2474;SDS011;1248;48.694;10.160;2023-01-24T09:25:56;20.90;;;14.50;;
2474;SDS011;1248;48.694;10.160;2023-01-24T09:28:24;26.37;;;16.00;;
2474;SDS011;1248;48.694;10.160;2023-01-24T09:30:51;21.80;;;14.13;;
2474;SDS011;1248;48.694;10.160;2023-01-24T09:33:18;16.57;;;12.47;;
2474;SDS011;1248;48.694;10.160;2023-01-24T09:35:52;22.50;;;14.33;;
2474;SDS011;1248;48.694;10.160;2023-01-24T09:38:19;19.53;;;14.37;;
2474;SDS011;1248;48.694;10.160;2023-01-24T09:40:50;22.17;;;13.27;;
2474;SDS011;1248;48.694;10.160;2023-01-24T09:43:28;19.87;;;13.13;;
2474;SDS011;1248;48.694;10.160;2023-01-24T09:46:04;18.37;;;13.20;;
2474;SDS011;1248;48.694;10.160;2023-01-24T09:48:40;22.47;;;14.40;;
2474;SDS011;1248;48.694;10.160;2023-01-24T09:51:10;20.20;;;14.70;;
2474;SDS011;1248;48.694;10.160;2023-01-24T09:53:40;25.83;;;18.33;;
2474;SDS011;1248;48.694;10.160;2023-01-24T09:56:09;21.73;;;15.00;;
2474;SDS011;1248;48.694;10.160;2023-01-24T09:58:40;22.03;;;15.27;;
2474;SDS011;1248;48.694;10.160;2023-01-24T10:01:10;16.40;;;12.33;;
2474;SDS011;1248;48.694;10.160;2023-01-24T10:03:38;19.60;;;13.23;;
2474;SDS011;1248;48.694;10.160;2023-01-24T10:06:06;17.47;;;12.80;;
2474;SDS011;1248;48.694;10.160;2023-01-24T10:08:36;17.50;;;12.27;;
2474;SDS011;1248;48.694;10.160;2023-01-24T10:11:14;18.97;;;13.50;;
2474;SDS011;1248;48.694;10.160;2023-01-24T10:13:54;21.70;;;14.53;;
2474;SDS011;1248;48.694;10.160;2023-01-24T10:16:36;16.33;;;14.10;;
2474;SDS011;1248;48.694;10.160;2023-01-24T10:19:20;19.33;;;14.37;;
2474;SDS011;1248;48.694;10.160;2023-01-24T10:22:03;18.70;;;13.67;;
2474;SDS011;1248;48.694;10.160;2023-01-24T10:24:39;16.67;;;11.87;;
2474;SDS011;1248;48.694;10.160;2023-01-24T10:27:12;20.50;;;12.37;;
2474;SDS011;1248;48.694;10.160;2023-01-24T10:29:44;19.47;;;13.87;;
2474;SDS011;1248;48.694;10.160;2023-01-24T10:32:13;16.90;;;14.37;;
2474;SDS011;1248;48.694;10.160;2023-01-24T10:34:43;19.60;;;14.33;;
2474;SDS011;1248;48.694;10.160;2023-01-24T10:37:14;17.43;;;13.67;;
2474;SDS011;1248;48.694;10.160;2023-01-24T10:39:44;15.60;;;12.90;;
2474;SDS011;1248;48.694;10.160;2023-01-24T10:42:12;16.73;;;13.40;;
2474;SDS011;1248;48.694;10.160;2023-01-24T10:44:46;16.30;;;12.63;;
2474;SDS011;1248;48.694;10.160;2023-01-24T10:47:17;17.03;;;12.80;;
2474;SDS011;1248;48.694;10.160;2023-01-24T10:49:57;20.50;;;13.50;;
2474;SDS011;1248;48.694;10.160;2023-01-24T10:52:25;18.33;;;11.87;;
2474;SDS011;1248;48.694;10.160;2023-01-24T10:54:53;18.87;;;14.00;;
2474;SDS011;1248;48.694;10.160;2023-01-24T10:57:32;18.10;;;12.47;;
2474;SDS011;1248;48.694;10.160;2023-01-24T11:00:15;18.30;;;13.07;;
2474;SDS011;1248;48.694;10.160;2023-01-24T11:02:46;19.77;;;12.03;;
2474;SDS011;1248;48.694;10.160;2023-01-24T11:05:14;16.67;;;12.53;;
2474;SDS011;1248;48.694;10.160;2023-01-24T11:07:44;16.87;;;11.97;;
2474;SDS011;1248;48.694;10.160;2023-01-24T11:10:17;18.30;;;12.63;;
2474;SDS011;1248;48.694;10.160;2023-01-24T11:12:49;17.73;;;12.37;;
2474;SDS011;1248;48.694;10.160;2023-01-24T11:15:21;15.60;;;11.50;;
2474;SDS011;1248;48.694;10.160;2023-01-24T11:17:54;16.57;;;11.60;;
2474;SDS011;1248;48.694;10.160;2023-01-24T11:20:26;15.70;;;13.10;;
2474;SDS011;1248;48.694;10.160;2023-01-24T11:23:05;17.37;;;12.90;;
2474;SDS011;1248;48.694;10.160;2023-01-24T11:25:35;17.40;;;12.53;;
2474;SDS011;1248;48.694;10.160;2023-01-24T11:28:03;19.90;;;13.73;;
2474;SDS011;1248;48.694;10.160;2023-01-24T11:30:31;15.40;;;12.33;;
2474;SDS011;1248;48.694;10.160;2023-01-24T11:35:54;16.70;;;12.73;;
2474;SDS011;1248;48.694;10.160;2023-01-24T11:38:23;19.63;;;12.70;;
2474;SDS011;1248;48.694;10.160;2023-01-24T11:40:57;19.13;;;13.03;;
2474;SDS011;1248;48.694;10.160;2023-01-24T11:43:35;22.17;;;14.10;;
2474;SDS011;1248;48.694;10.160;2023-01-24T11:46:23;16.23;;;12.63;;
2474;SDS011;1248;48.694;10.160;2023-01-24T11:48:55;18.90;;;13.80;;
2474;SDS011;1248;48.694;10.160;2023-01-24T11:51:29;14.67;;;11.90;;
2474;SDS011;1248;48.694;10.160;2023-01-24T11:56:53;17.47;;;12.33;;
2474;SDS011;1248;48.694;10.160;2023-01-24T12:02:27;17.23;;;13.50;;
2474;SDS011;1248;48.694;10.160;2023-01-24T12:07:46;17.30;;;12.27;;
2474;SDS011;1248;48.694;10.160;2023-01-24T12:10:22;18.00;;;13.20;;
2474;SDS011;1248;48.694;10.160;2023-01-24T12:12:54;15.27;;;13.13;;
2474;SDS011;1248;48.694;10.160;2023-01-24T12:15:30;17.27;;;12.73;;
2474;SDS011;1248;48.694;10.160;2023-01-24T12:18:08;16.40;;;12.10;;
2474;SDS011;1248;48.694;10.160;2023-01-24T12:20:58;17.73;;;12.83;;
2474;SDS011;1248;48.694;10.160;2023-01-24T12:23:28;15.03;;;13.13;;
2474;SDS011;1248;48.694;10.160;2023-01-24T12:26:02;22.97;;;12.97;;
2474;SDS011;1248;48.694;10.160;2023-01-24T12:28:33;19.07;;;12.40;;
2474;SDS011;1248;48.694;10.160;2023-01-24T12:31:02;17.10;;;11.73;;
2474;SDS011;1248;48.694;10.160;2023-01-24T12:33:33;16.10;;;11.60;;
2474;SDS011;1248;48.694;10.160;2023-01-24T12:36:03;14.70;;;12.20;;
2474;SDS011;1248;48.694;10.160;2023-01-24T12:38:35;13.00;;;10.70;;
2474;SDS011;1248;48.694;10.160;2023-01-24T12:41:07;18.90;;;13.17;;
2474;SDS011;1248;48.694;10.160;2023-01-24T12:43:40;19.20;;;12.60;;
2474;SDS011;1248;48.694;10.160;2023-01-24T12:46:17;17.50;;;12.20;;
2474;SDS011;1248;48.694;10.160;2023-01-24T12:48:48;18.70;;;14.07;;
2474;SDS011;1248;48.694;10.160;2023-01-24T12:51:19;15.23;;;12.10;;
2474;SDS011;1248;48.694;10.160;2023-01-24T12:54:02;19.00;;;12.60;;
2474;SDS011;1248;48.694;10.160;2023-01-24T12:56:32;19.30;;;13.27;;
2474;SDS011;1248;48.694;10.160;2023-01-24T12:59:07;16.10;;;11.40;;
2474;SDS011;1248;48.694;10.160;2023-01-24T13:01:50;18.80;;;12.90;;
2474;SDS011;1248;48.694;10.160;2023-01-24T13:04:32;15.70;;;12.67;;
2474;SDS011;1248;48.694;10.160;2023-01-24T13:07:08;18.50;;;12.10;;
2474;SDS011;1248;48.694;10.160;2023-01-24T13:09:42;17.93;;;12.07;;
2474;SDS011;1248;48.694;10.160;2023-01-24T13:12:14;17.30;;;11.87;;
2474;SDS011;1248;48.694;10.160;2023-01-24T13:14:43;16.00;;;12.57;;
2474;SDS011;1248;48.694;10.160;2023-01-24T13:17:15;17.53;;;12.90;;
2474;SDS011;1248;48.694;10.160;2023-01-24T13:19:55;21.57;;;13.17;;
2474;SDS011;1248;48.694;10.160;2023-01-24T13:25:21;20.17;;;12.20;;
2474;SDS011;1248;48.694;10.160;2023-01-24T13:28:03;16.43;;;11.90;;
2474;SDS011;1248;48.694;10.160;2023-01-24T13:30:36;20.30;;;13.57;;
2474;SDS011;1248;48.694;10.160;2023-01-24T13:33:11;18.80;;;12.60;;
2474;SDS011;1248;48.694;10.160;2023-01-24T13:35:46;20.27;;;13.67;;
2474;SDS011;1248;48.694;10.160;2023-01-24T13:38:15;19.03;;;13.40;;
2474;SDS011;1248;48.694;10.160;2023-01-24T13:40:55;15.30;;;13.10;;
2474;SDS011;1248;48.694;10.160;2023-01-24T13:43:51;18.13;;;12.43;;
2474;SDS011;1248;48.694;10.160;2023-01-24T13:49:31;17.13;;;12.57;;
2474;SDS011;1248;48.694;10.160;2023-01-24T13:58:27;18.40;;;12.20;;
2474;SDS011;1248;48.694;10.160;2023-01-24T14:00:55;17.10;;;12.43;;
2474;SDS011;1248;48.694;10.160;2023-01-24T14:03:26;21.17;;;13.63;;
2474;SDS011;1248;48.694;10.160;2023-01-24T14:06:05;19.70;;;13.00;;
2474;SDS011;1248;48.694;10.160;2023-01-24T14:08:37;19.90;;;13.47;;
2474;SDS011;1248;48.694;10.160;2023-01-24T14:11:20;16.23;;;11.70;;
2474;SDS011;1248;48.694;10.160;2023-01-24T14:13:59;16.87;;;12.30;;
2474;SDS011;1248;48.694;10.160;2023-01-24T14:19:37;18.23;;;12.60;;
2474;SDS011;1248;48.694;10.160;2023-01-24T14:22:15;24.80;;;14.83;;
2474;SDS011;1248;48.694;10.160;2023-01-24T14:24:50;23.43;;;15.33;;
2474;SDS011;1248;48.694;10.160;2023-01-24T14:27:21;20.73;;;14.77;;
2474;SDS011;1248;48.694;10.160;2023-01-24T14:29:53;27.40;;;15.23;;
2474;SDS011;1248;48.694;10.160;2023-01-24T14:32:25;21.43;;;14.17;;
2474;SDS011;1248;48.694;10.160;2023-01-24T14:34:57;23.23;;;14.10;;
2474;SDS011;1248;48.694;10.160;2023-01-24T14:37:26;23.20;;;14.77;;
2474;SDS011;1248;48.694;10.160;2023-01-24T14:40:08;22.17;;;14.87;;
2474;SDS011;1248;48.694;10.160;2023-01-24T14:42:38;22.40;;;15.90;;
2474;SDS011;1248;48.694;10.160;2023-01-24T14:45:06;25.37;;;16.70;;
2474;SDS011;1248;48.694;10.160;2023-01-24T14:47:39;21.57;;;14.13;;
2474;SDS011;1248;48.694;10.160;2023-01-24T14:50:17;25.97;;;15.30;;
2474;SDS011;1248;48.694;10.160;2023-01-24T14:52:47;20.20;;;13.83;;
2474;SDS011;1248;48.694;10.160;2023-01-24T14:55:22;15.30;;;11.93;;
2474;SDS011;1248;48.694;10.160;2023-01-24T14:58:02;16.60;;;12.67;;
2474;SDS011;1248;48.694;10.160;2023-01-24T15:00:39;20.60;;;14.20;;
2474;SDS011;1248;48.694;10.160;2023-01-24T15:03:10;19.63;;;13.53;;
2474;SDS011;1248;48.694;10.160;2023-01-24T15:05:48;21.60;;;13.97;;
2474;SDS011;1248;48.694;10.160;2023-01-24T15:08:17;19.63;;;13.03;;
2474;SDS011;1248;48.694;10.160;2023-01-24T15:10:44;28.33;;;15.47;;
2474;SDS011;1248;48.694;10.160;2023-01-24T15:13:19;18.20;;;14.10;;
2474;SDS011;1248;48.694;10.160;2023-01-24T15:15:49;17.20;;;12.90;;
2474;SDS011;1248;48.694;10.160;2023-01-24T15:18:29;23.30;;;16.13;;
2474;SDS011;1248;48.694;10.160;2023-01-24T15:21:15;22.50;;;15.40;;